Portada
METAR-TAF:

METAR-TAF

Aeropuertos :

El Vigia, Venezuela

Aeropuerto Juan Pablo Pérez Alfonzo

latitud: 08-38N, longitud: 071-40W, altitud: 100 m

Observación

El informe se hizo hace 5 horas y 0 minutos, a las 21:00 UTC
Viento 4 kt del noreste
Temperatura 29°C
Humedad 55%
Presión 1008 hPa
Visibilidad 10 km o más
Nubes dispersas a una altura de 2300 ft
Nubes dispersas a una altura de 10000 ft

METAR: SVVG 272100Z 05004KT 9999 SCT023 SCT100 29/19 Q1008

Hora: 22:00 (02:00 UTC)


TAF: falta

Observaciones y pronósticos meteorológicos de más de 4000 aeropuertos (mensajes METAR y TAF).

Los puntos amarillos y rojos representan las estaciones disponibles.

Ponga el ratón en el punto deseado para ver el nombre de la estación.

Haga clic para ver las observaciones y los pronósticos meteorológicos.

Para cambiar el mapa : haga clic en los botones verdes con una cruz de color negro para hacer un zoom, en el botón verde con un guión para alejar o en las flechas verdes para mapas adyacentes.


METAR-TAF: